createdAt,value
2017-12-16T00:00:48.622Z,13.90
2017-12-16T00:01:48.614Z,18.70
2017-12-16T00:02:48.604Z,21.80
2017-12-16T00:03:48.597Z,17.40
2017-12-16T00:04:48.587Z,18.70
2017-12-16T00:05:48.579Z,16.80
2017-12-16T00:06:48.570Z,20.20
2017-12-16T00:07:48.562Z,19.10
2017-12-16T00:08:48.553Z,20.10
2017-12-16T00:09:48.544Z,26.00
2017-12-16T00:10:48.535Z,19.30
2017-12-16T00:11:48.525Z,24.00
2017-12-16T00:12:48.517Z,20.70
2017-12-16T00:13:48.508Z,24.70
2017-12-16T00:14:48.503Z,20.90
2017-12-16T00:15:48.489Z,30.40
2017-12-16T00:16:48.481Z,28.80
2017-12-16T00:17:48.472Z,33.50
2017-12-16T00:18:48.464Z,23.20
2017-12-16T00:19:48.455Z,22.50
2017-12-16T00:20:48.446Z,23.60
2017-12-16T00:21:48.437Z,20.70
2017-12-16T00:22:48.426Z,16.10
2017-12-16T00:23:48.417Z,19.10
2017-12-16T00:24:48.410Z,23.20
2017-12-16T00:25:48.403Z,17.60
2017-12-16T00:26:48.391Z,18.30
2017-12-16T00:27:48.381Z,20.80
2017-12-16T00:28:48.372Z,23.90
2017-12-16T00:29:48.364Z,20.10
2017-12-16T00:30:48.355Z,28.40
2017-12-16T00:31:48.347Z,22.30
2017-12-16T00:32:48.340Z,32.00
2017-12-16T00:33:48.330Z,19.50
2017-12-16T00:34:48.320Z,28.80
2017-12-16T00:35:48.311Z,30.60
2017-12-16T00:36:48.300Z,31.90
2017-12-16T00:37:48.293Z,31.90
2017-12-16T00:38:48.283Z,28.40
2017-12-16T00:39:48.275Z,39.10
2017-12-16T00:40:48.267Z,36.10
2017-12-16T00:41:48.258Z,27.50
2017-12-16T00:42:48.247Z,36.50
2017-12-16T00:43:48.240Z,39.40
2017-12-16T00:44:48.229Z,54.30
2017-12-16T00:45:48.221Z,44.40
2017-12-16T00:46:48.212Z,44.80
2017-12-16T00:47:48.202Z,50.10
2017-12-16T00:48:48.193Z,43.00
2017-12-16T00:49:48.184Z,37.40
2017-12-16T00:50:48.175Z,48.90
2017-12-16T00:51:48.166Z,46.80
2017-12-16T00:52:48.161Z,37.10
2017-12-16T00:53:48.150Z,38.60
2017-12-16T00:54:48.140Z,40.80
2017-12-16T00:55:48.132Z,35.30
2017-12-16T00:56:48.124Z,38.00
2017-12-16T00:57:48.114Z,40.30
2017-12-16T00:58:48.105Z,33.30
2017-12-16T00:59:48.094Z,43.40
2017-12-16T01:00:48.087Z,28.50
2017-12-16T01:01:48.078Z,31.20
2017-12-16T01:02:48.068Z,33.20
2017-12-16T01:03:48.062Z,30.90
2017-12-16T01:04:48.053Z,30.80
2017-12-16T01:05:48.043Z,28.60
2017-12-16T01:06:48.034Z,30.60
2017-12-16T01:07:48.025Z,30.60
2017-12-16T01:08:48.017Z,32.50
2017-12-16T01:09:48.008Z,36.80
2017-12-16T01:10:47.999Z,39.00
2017-12-16T01:11:47.990Z,27.40
2017-12-16T01:12:47.982Z,20.30
2017-12-16T01:13:47.972Z,15.70
2017-12-16T01:14:47.962Z,19.40
2017-12-16T01:15:47.953Z,19.10
2017-12-16T01:16:47.946Z,17.70
2017-12-16T01:17:47.938Z,26.30
2017-12-16T01:18:47.930Z,19.00
2017-12-16T01:19:47.921Z,28.70
2017-12-16T01:20:47.912Z,20.40
2017-12-16T01:21:47.903Z,21.70
2017-12-16T01:22:47.893Z,28.20
2017-12-16T01:23:47.891Z,16.30
2017-12-16T01:24:47.875Z,19.10
2017-12-16T01:25:47.868Z,16.40
2017-12-16T01:26:47.858Z,17.20
2017-12-16T01:27:47.850Z,29.90
2017-12-16T01:28:47.843Z,30.20
2017-12-16T01:29:47.832Z,22.20
2017-12-16T01:30:47.824Z,18.90
2017-12-16T01:31:47.814Z,17.50
2017-12-16T01:32:47.808Z,19.60
2017-12-16T01:33:47.797Z,25.50
2017-12-16T01:34:47.788Z,25.20
2017-12-16T01:35:47.781Z,21.80
2017-12-16T01:36:47.772Z,16.40
2017-12-16T01:37:47.764Z,19.60
2017-12-16T01:38:47.754Z,15.60
2017-12-16T01:39:47.746Z,18.50
2017-12-16T01:40:47.736Z,19.60
2017-12-16T01:41:47.728Z,20.40
2017-12-16T01:42:47.718Z,22.80
2017-12-16T01:43:47.709Z,16.00
2017-12-16T01:44:47.703Z,17.80
2017-12-16T01:45:47.694Z,18.80
2017-12-16T01:46:47.683Z,20.00
2017-12-16T01:47:47.673Z,25.10
2017-12-16T01:48:47.665Z,19.80
2017-12-16T01:49:47.658Z,14.20
2017-12-16T01:50:47.649Z,26.30
2017-12-16T01:51:47.638Z,20.90
2017-12-16T01:52:47.631Z,18.50
2017-12-16T01:53:47.622Z,21.60
2017-12-16T01:54:47.612Z,18.60
2017-12-16T01:55:47.610Z,33.60
2017-12-16T01:56:47.597Z,23.50
2017-12-16T01:57:47.586Z,28.80
2017-12-16T01:58:47.578Z,29.70
2017-12-16T01:59:47.567Z,21.20
2017-12-16T02:00:47.561Z,34.40
2017-12-16T02:01:47.552Z,35.30
2017-12-16T02:02:47.547Z,27.70
2017-12-16T02:03:47.533Z,44.30
2017-12-16T02:04:47.524Z,36.80
2017-12-16T02:05:47.517Z,49.20
2017-12-16T02:06:47.507Z,63.00
2017-12-16T02:07:47.498Z,59.20
2017-12-16T02:08:47.489Z,41.50
2017-12-16T02:09:47.481Z,35.00
2017-12-16T02:10:47.471Z,32.70
2017-12-16T02:11:47.461Z,36.90
2017-12-16T02:12:47.454Z,26.10
2017-12-16T02:13:47.444Z,38.30
2017-12-16T02:14:47.436Z,32.00
2017-12-16T02:15:47.429Z,24.80
2017-12-16T02:16:47.419Z,45.80
2017-12-16T02:17:47.411Z,33.60
2017-12-16T02:18:47.400Z,21.70
2017-12-16T02:19:47.391Z,37.50
2017-12-16T02:20:47.384Z,39.80
2017-12-16T02:21:47.374Z,23.60
2017-12-16T02:22:47.365Z,38.90
2017-12-16T02:23:47.358Z,31.60
2017-12-16T02:24:47.349Z,37.20
2017-12-16T02:25:47.343Z,33.60
2017-12-16T02:26:47.332Z,30.80
2017-12-16T02:27:47.323Z,51.70
2017-12-16T02:28:47.314Z,29.40
2017-12-16T02:29:47.309Z,37.10
2017-12-16T02:30:47.296Z,42.90
2017-12-16T02:31:47.288Z,30.60
2017-12-16T02:32:47.280Z,27.70
2017-12-16T02:33:47.273Z,34.20
2017-12-16T02:34:47.262Z,24.40
2017-12-16T02:35:47.257Z,37.60
2017-12-16T02:36:47.247Z,53.80
2017-12-16T02:37:47.237Z,30.00
2017-12-16T02:38:47.228Z,38.50
2017-12-16T02:39:47.220Z,28.60
2017-12-16T02:40:47.214Z,41.60
2017-12-16T02:41:47.204Z,44.40
2017-12-16T02:42:47.194Z,25.80
2017-12-16T02:43:47.187Z,31.50
2017-12-16T02:44:47.180Z,36.60
2017-12-16T02:45:47.173Z,42.50
2017-12-16T02:46:47.166Z,17.80
2017-12-16T02:47:47.154Z,24.50
2017-12-16T02:48:47.148Z,36.00
2017-12-16T02:49:47.138Z,22.00
2017-12-16T02:50:47.126Z,27.60
2017-12-16T02:51:47.120Z,32.90
2017-12-16T02:52:47.111Z,30.10
2017-12-16T02:53:47.103Z,31.40
2017-12-16T02:54:47.095Z,26.10
2017-12-16T02:55:47.088Z,31.20
2017-12-16T02:56:47.079Z,36.10
2017-12-16T02:57:47.072Z,23.00
2017-12-16T02:58:47.062Z,34.30
2017-12-16T02:59:47.053Z,24.70
2017-12-16T03:00:47.044Z,40.10
2017-12-16T03:01:47.037Z,33.00
2017-12-16T03:02:47.029Z,27.70
2017-12-16T03:03:47.020Z,35.00
2017-12-16T03:04:47.019Z,44.80
2017-12-16T03:05:47.005Z,27.20
2017-12-16T03:06:46.996Z,24.80
2017-12-16T03:07:46.987Z,36.80
2017-12-16T03:08:46.983Z,32.90
2017-12-16T03:09:46.971Z,49.00
2017-12-16T03:10:47.007Z,36.10
2017-12-16T03:11:46.954Z,39.70
2017-12-16T03:12:46.947Z,47.00
2017-12-16T03:13:46.938Z,41.90
2017-12-16T03:14:46.930Z,33.30
2017-12-16T03:15:46.922Z,60.00
2017-12-16T03:16:46.914Z,51.20
2017-12-16T03:17:46.905Z,37.90
2017-12-16T03:18:46.897Z,58.70
2017-12-16T03:19:46.889Z,57.90
2017-12-16T03:20:46.880Z,44.80
2017-12-16T03:21:46.872Z,39.50
2017-12-16T03:22:46.864Z,66.70
2017-12-16T03:23:46.854Z,51.20
2017-12-16T03:24:46.847Z,28.40
2017-12-16T03:25:46.839Z,59.50
2017-12-16T03:26:46.830Z,60.70
2017-12-16T03:27:46.822Z,43.40
2017-12-16T03:28:46.813Z,38.50
2017-12-16T03:29:46.813Z,50.60
2017-12-16T03:30:46.797Z,52.70
2017-12-16T03:31:46.788Z,34.00
2017-12-16T03:32:46.778Z,39.60
2017-12-16T03:33:46.771Z,47.70
2017-12-16T03:34:46.762Z,37.60
2017-12-16T03:35:46.755Z,56.00
2017-12-16T03:36:46.746Z,47.20
2017-12-16T03:37:46.738Z,43.00
2017-12-16T03:38:46.729Z,42.00
2017-12-16T03:39:46.721Z,55.30
2017-12-16T03:40:46.711Z,36.30
2017-12-16T03:41:46.703Z,36.00
2017-12-16T03:42:46.695Z,52.70
2017-12-16T03:43:46.687Z,46.80
2017-12-16T03:44:46.679Z,35.00
2017-12-16T03:45:46.670Z,50.20
2017-12-16T03:46:46.661Z,37.30
2017-12-16T03:47:46.657Z,28.80
2017-12-16T03:48:46.645Z,38.80
2017-12-16T03:49:46.636Z,32.00
2017-12-16T03:50:46.627Z,28.90
2017-12-16T03:51:46.619Z,41.40
2017-12-16T03:52:46.610Z,40.40
2017-12-16T03:53:46.603Z,31.70
2017-12-16T03:54:46.595Z,25.00
2017-12-16T03:55:46.585Z,34.50
2017-12-16T03:56:46.578Z,24.20
2017-12-16T03:57:46.568Z,37.50
2017-12-16T03:58:46.559Z,26.10
2017-12-16T03:59:46.553Z,23.40
2017-12-16T04:00:46.543Z,31.60
2017-12-16T04:01:46.534Z,29.10
2017-12-16T04:02:46.525Z,27.20
2017-12-16T04:03:46.517Z,28.30
2017-12-16T04:04:46.509Z,34.40
2017-12-16T04:05:46.501Z,25.20
2017-12-16T04:06:46.492Z,34.30
2017-12-16T04:07:46.484Z,29.70
2017-12-16T04:08:46.476Z,30.10
2017-12-16T04:09:46.467Z,35.80
2017-12-16T04:10:46.457Z,37.20
2017-12-16T04:11:46.449Z,31.80
2017-12-16T04:12:46.446Z,27.30
2017-12-16T04:13:46.434Z,35.90
2017-12-16T04:14:46.425Z,36.80
2017-12-16T04:15:46.416Z,28.00
2017-12-16T04:16:46.408Z,28.30
2017-12-16T04:17:46.401Z,46.20
2017-12-16T04:18:46.391Z,37.10
2017-12-16T04:19:46.382Z,30.40
2017-12-16T04:20:46.373Z,30.00
2017-12-16T04:21:46.365Z,28.50
2017-12-16T04:22:46.356Z,34.80
2017-12-16T04:23:46.349Z,23.20
2017-12-16T04:24:46.341Z,36.20
2017-12-16T04:25:46.334Z,35.20
2017-12-16T04:26:46.324Z,33.40
2017-12-16T04:27:46.314Z,24.70
2017-12-16T04:28:46.307Z,35.60
2017-12-16T04:29:46.298Z,31.70
2017-12-16T04:30:46.289Z,22.30
2017-12-16T04:31:46.282Z,29.40
2017-12-16T04:32:46.274Z,34.50
2017-12-16T04:33:46.270Z,27.70
2017-12-16T04:34:46.257Z,28.50
2017-12-16T04:35:46.248Z,39.30
2017-12-16T04:36:46.241Z,31.90
2017-12-16T04:37:46.233Z,28.70
2017-12-16T04:38:46.223Z,37.00
2017-12-16T04:39:46.215Z,39.40
2017-12-16T04:40:46.208Z,16.80
2017-12-16T04:41:46.199Z,24.70
2017-12-16T04:42:46.200Z,31.70
2017-12-16T04:43:46.181Z,22.50
2017-12-16T04:44:46.174Z,21.10
2017-12-16T04:45:46.166Z,31.90
2017-12-16T04:46:46.157Z,31.60
2017-12-16T04:47:46.148Z,25.90
2017-12-16T04:48:46.141Z,32.50
2017-12-16T04:49:46.132Z,31.10
2017-12-16T04:50:46.126Z,26.90
2017-12-16T04:51:46.114Z,27.90
2017-12-16T04:52:46.107Z,39.00
2017-12-16T04:53:46.098Z,30.00
2017-12-16T04:54:46.090Z,36.30
2017-12-16T04:55:46.082Z,38.30
2017-12-16T04:56:46.072Z,26.40
2017-12-16T04:57:46.072Z,41.20
2017-12-16T04:58:46.055Z,30.20
2017-12-16T04:59:46.052Z,28.30
2017-12-16T05:00:46.093Z,27.10
2017-12-16T05:01:46.031Z,41.50
2017-12-16T05:02:46.021Z,21.90
2017-12-16T05:03:46.013Z,31.00
2017-12-16T05:04:46.006Z,27.70
2017-12-16T05:05:45.998Z,18.30
2017-12-16T05:06:45.989Z,39.80
2017-12-16T05:07:45.981Z,29.80
2017-12-16T05:08:45.971Z,21.10
2017-12-16T05:09:45.963Z,37.50
2017-12-16T05:10:45.985Z,23.20
2017-12-16T05:11:45.946Z,29.40
2017-12-16T05:12:45.938Z,38.90
2017-12-16T05:13:45.929Z,33.80
2017-12-16T05:14:45.921Z,26.30
2017-12-16T05:15:45.913Z,36.10
2017-12-16T05:16:45.906Z,44.10
2017-12-16T05:17:45.896Z,27.00
2017-12-16T05:18:45.887Z,26.40
2017-12-16T05:19:45.878Z,37.50
2017-12-16T05:20:45.870Z,27.10
2017-12-16T05:21:45.862Z,34.90
2017-12-16T05:22:45.854Z,40.90
2017-12-16T05:23:45.846Z,31.50
2017-12-16T05:24:45.839Z,28.70
2017-12-16T05:25:45.830Z,32.80
2017-12-16T05:26:45.821Z,42.90
2017-12-16T05:27:45.812Z,39.80
2017-12-16T05:28:45.805Z,38.40
2017-12-16T05:29:45.796Z,32.40
2017-12-16T05:30:45.787Z,43.50
2017-12-16T05:31:45.780Z,35.00
2017-12-16T05:32:45.771Z,30.40
2017-12-16T05:33:45.763Z,37.90
2017-12-16T05:34:45.753Z,36.60
2017-12-16T05:35:45.750Z,36.90
2017-12-16T05:36:45.738Z,41.40
2017-12-16T05:37:45.730Z,27.80
2017-12-16T05:38:45.719Z,33.90
2017-12-16T05:39:45.713Z,39.40
2017-12-16T05:40:45.704Z,43.00
2017-12-16T05:41:45.703Z,35.30
2017-12-16T05:42:45.687Z,30.60
2017-12-16T05:43:45.680Z,35.70
2017-12-16T05:44:45.671Z,40.90
2017-12-16T05:45:45.664Z,20.30
2017-12-16T05:46:45.657Z,35.00
2017-12-16T05:47:45.646Z,44.50
2017-12-16T05:48:45.639Z,36.50
2017-12-16T05:49:45.633Z,26.60
2017-12-16T05:50:45.622Z,36.30
2017-12-16T05:51:45.615Z,34.20
2017-12-16T05:52:45.607Z,32.10
2017-12-16T05:53:45.599Z,29.60
2017-12-16T05:54:45.592Z,46.90
2017-12-16T05:55:45.583Z,35.50
2017-12-16T05:56:45.575Z,37.10
2017-12-16T05:57:45.567Z,29.80
2017-12-16T05:58:45.557Z,34.00
2017-12-16T05:59:45.549Z,33.90
2017-12-16T06:00:45.542Z,32.80
2017-12-16T06:01:45.535Z,28.20
2017-12-16T06:02:45.527Z,37.70
2017-12-16T06:03:45.518Z,34.90
2017-12-16T06:04:45.510Z,32.40
2017-12-16T06:05:45.503Z,29.30
2017-12-16T06:06:45.493Z,39.80
2017-12-16T06:07:45.485Z,35.40
2017-12-16T06:08:45.478Z,37.60
2017-12-16T06:09:45.469Z,47.50
2017-12-16T06:10:45.462Z,46.20
2017-12-16T06:11:45.454Z,27.00
2017-12-16T06:12:45.446Z,40.40
2017-12-16T06:13:45.437Z,36.40
2017-12-16T06:14:45.429Z,31.00
2017-12-16T06:15:45.420Z,37.80
2017-12-16T06:16:45.413Z,24.70
2017-12-16T06:17:45.406Z,36.30
2017-12-16T06:18:45.397Z,32.40
2017-12-16T06:19:45.387Z,20.50
2017-12-16T06:20:45.381Z,38.40
2017-12-16T06:21:45.372Z,42.50
2017-12-16T06:22:45.365Z,24.40
2017-12-16T06:23:45.357Z,37.10
2017-12-16T06:24:45.348Z,37.20
2017-12-16T06:25:45.340Z,22.90
2017-12-16T06:26:45.333Z,38.00
2017-12-16T06:27:45.321Z,36.50
2017-12-16T06:28:45.315Z,27.20
2017-12-16T06:29:45.308Z,36.00
2017-12-16T06:30:45.297Z,34.20
2017-12-16T06:31:45.291Z,30.20
2017-12-16T06:32:45.283Z,42.20
2017-12-16T06:33:45.274Z,49.30
2017-12-16T06:34:45.264Z,31.40
2017-12-16T06:35:45.257Z,22.70
2017-12-16T06:36:45.250Z,29.90
2017-12-16T06:37:45.241Z,45.40
2017-12-16T06:38:45.232Z,25.50
2017-12-16T06:39:45.225Z,37.40
2017-12-16T06:40:45.216Z,35.50
2017-12-16T06:41:45.206Z,30.30
2017-12-16T06:42:45.198Z,42.90
2017-12-16T06:43:45.195Z,38.00
2017-12-16T06:44:45.185Z,33.70
2017-12-16T06:45:45.173Z,40.40
2017-12-16T06:46:45.166Z,40.50
2017-12-16T06:47:45.158Z,27.70
2017-12-16T06:48:45.150Z,26.50
2017-12-16T06:49:45.144Z,45.20
2017-12-16T06:50:45.132Z,44.20
2017-12-16T06:51:45.131Z,33.60
2017-12-16T06:52:45.118Z,37.30
2017-12-16T06:53:45.108Z,41.20
2017-12-16T06:54:45.099Z,31.80
2017-12-16T06:55:45.092Z,31.10
2017-12-16T06:56:45.084Z,34.70
2017-12-16T06:57:45.075Z,25.70
2017-12-16T06:58:45.067Z,33.40
2017-12-16T06:59:45.059Z,35.10
2017-12-16T07:00:45.051Z,26.00
2017-12-16T07:01:45.043Z,26.50
2017-12-16T07:02:45.033Z,38.10
2017-12-16T07:03:45.025Z,29.90
2017-12-16T07:04:45.020Z,26.30
2017-12-16T07:05:45.009Z,28.00
2017-12-16T07:06:45.001Z,39.20
2017-12-16T07:07:45.017Z,38.30
2017-12-16T07:08:44.987Z,19.70
2017-12-16T07:09:44.977Z,31.50
2017-12-16T07:10:44.968Z,36.80
2017-12-16T07:11:44.961Z,33.70
2017-12-16T07:12:44.953Z,40.30
2017-12-16T07:13:44.944Z,41.20
2017-12-16T07:14:44.969Z,21.50
2017-12-16T07:15:44.926Z,35.70
2017-12-16T07:16:44.918Z,33.80
2017-12-16T07:17:44.911Z,26.00
2017-12-16T07:18:44.906Z,36.80
2017-12-16T07:19:44.894Z,40.20
2017-12-16T07:20:44.886Z,23.60
2017-12-16T07:21:44.876Z,35.10
2017-12-16T07:22:44.868Z,37.90
2017-12-16T07:23:44.860Z,21.20
2017-12-16T07:24:44.852Z,38.90
2017-12-16T07:25:44.843Z,41.60
2017-12-16T07:26:44.834Z,27.10
2017-12-16T07:27:44.829Z,35.90
2017-12-16T07:28:44.818Z,41.10
2017-12-16T07:29:44.814Z,37.20
2017-12-16T07:30:44.801Z,33.50
2017-12-16T07:31:44.790Z,49.50
2017-12-16T07:32:44.785Z,24.20
2017-12-16T07:33:44.775Z,30.80
2017-12-16T07:34:44.767Z,39.80
2017-12-16T07:35:44.758Z,34.20
2017-12-16T07:36:44.748Z,27.80
2017-12-16T07:37:44.741Z,33.10
2017-12-16T07:38:44.731Z,32.50
2017-12-16T07:39:44.724Z,25.50
2017-12-16T07:40:44.718Z,44.50
2017-12-16T07:41:44.705Z,36.80
2017-12-16T07:42:44.696Z,27.90
2017-12-16T07:43:44.687Z,39.60
2017-12-16T07:44:44.679Z,33.40
2017-12-16T07:45:44.672Z,29.80
2017-12-16T07:46:44.664Z,36.00
2017-12-16T07:47:44.655Z,27.20
2017-12-16T07:48:44.646Z,25.60
2017-12-16T07:49:44.637Z,37.50
2017-12-16T07:50:44.628Z,32.90
2017-12-16T07:51:44.619Z,29.90
2017-12-16T07:52:44.632Z,27.00
2017-12-16T07:53:44.602Z,42.30
2017-12-16T07:54:44.595Z,32.20
2017-12-16T07:55:44.585Z,25.20
2017-12-16T07:56:44.576Z,35.50
2017-12-16T07:57:44.568Z,26.00
2017-12-16T07:58:44.561Z,21.30
2017-12-16T07:59:44.552Z,31.20
2017-12-16T08:00:44.542Z,26.90
2017-12-16T08:01:44.533Z,30.20
2017-12-16T08:02:44.524Z,36.30
2017-12-16T08:03:44.515Z,17.20
2017-12-16T08:04:44.507Z,25.70
2017-12-16T08:05:44.499Z,42.40
2017-12-16T08:06:44.490Z,25.70
2017-12-16T08:07:44.482Z,28.90
2017-12-16T08:08:44.473Z,31.70
2017-12-16T08:09:44.509Z,22.30
2017-12-16T08:10:44.454Z,26.80
2017-12-16T08:11:44.445Z,32.60
2017-12-16T08:12:44.438Z,20.30
2017-12-16T08:13:44.431Z,25.30
2017-12-16T08:14:44.420Z,40.10
2017-12-16T08:15:44.411Z,17.50
2017-12-16T08:16:44.403Z,23.60
2017-12-16T08:17:44.395Z,20.70
2017-12-16T08:18:44.384Z,14.30
2017-12-16T08:19:44.377Z,29.90
2017-12-16T08:20:44.367Z,28.50
2017-12-16T08:21:44.359Z,19.10
2017-12-16T08:22:44.351Z,27.20
2017-12-16T08:23:44.342Z,17.60
2017-12-16T08:24:44.332Z,19.70
2017-12-16T08:25:44.325Z,25.50
2017-12-16T08:26:44.313Z,25.90
2017-12-16T08:27:44.306Z,17.90
2017-12-16T08:28:44.298Z,29.90
2017-12-16T08:29:44.289Z,20.70
2017-12-16T08:30:44.280Z,20.90
2017-12-16T08:31:44.271Z,25.30
2017-12-16T08:32:44.263Z,20.90
2017-12-16T08:33:44.255Z,16.30
2017-12-16T08:34:44.243Z,19.80
2017-12-16T08:35:44.236Z,22.20
2017-12-16T08:36:44.227Z,17.80
2017-12-16T08:37:44.219Z,31.20
2017-12-16T08:38:44.211Z,19.70
2017-12-16T08:39:44.202Z,19.30
2017-12-16T08:40:44.193Z,24.40
2017-12-16T08:41:44.184Z,29.20
2017-12-16T08:42:44.175Z,17.70
2017-12-16T08:43:44.174Z,16.80
2017-12-16T08:44:44.158Z,24.10
2017-12-16T08:45:44.149Z,25.00
2017-12-16T08:46:44.139Z,21.00
2017-12-16T08:47:44.133Z,18.70
2017-12-16T08:48:44.123Z,23.90
2017-12-16T08:49:44.115Z,17.40
2017-12-16T08:50:44.107Z,19.30
2017-12-16T08:51:44.096Z,18.30
2017-12-16T08:52:44.089Z,22.20
2017-12-16T08:53:44.081Z,12.90
2017-12-16T08:54:44.071Z,16.80
2017-12-16T08:55:44.064Z,28.90
2017-12-16T08:56:44.056Z,25.90
2017-12-16T08:57:44.046Z,21.90
2017-12-16T08:58:44.038Z,21.20
2017-12-16T08:59:44.029Z,21.80
2017-12-16T09:00:44.021Z,19.70
2017-12-16T09:01:44.012Z,14.60
2017-12-16T09:02:44.004Z,15.20
2017-12-16T09:03:43.994Z,23.50
2017-12-16T09:04:43.987Z,19.60
2017-12-16T09:05:43.979Z,22.00
2017-12-16T09:06:43.978Z,19.30
2017-12-16T09:07:43.963Z,18.20
2017-12-16T09:08:43.957Z,11.30
2017-12-16T09:09:43.946Z,12.60
2017-12-16T09:10:43.940Z,14.50
2017-12-16T09:11:43.928Z,13.80
2017-12-16T09:12:43.920Z,16.80
2017-12-16T09:13:43.911Z,11.00
2017-12-16T09:14:43.902Z,17.30
2017-12-16T09:15:43.897Z,19.10
2017-12-16T09:16:43.887Z,14.60
2017-12-16T09:17:43.880Z,18.90
2017-12-16T09:18:43.870Z,16.50
2017-12-16T09:19:43.862Z,15.70
2017-12-16T09:20:43.853Z,13.80
2017-12-16T09:21:43.846Z,12.50
2017-12-16T09:22:43.837Z,16.70
2017-12-16T09:23:43.829Z,10.70
2017-12-16T09:24:43.819Z,13.80
2017-12-16T09:25:43.813Z,9.30
2017-12-16T09:26:43.803Z,13.80
2017-12-16T09:27:43.796Z,10.40
2017-12-16T09:28:43.789Z,13.40
2017-12-16T09:29:43.781Z,12.70
2017-12-16T09:30:43.772Z,7.70
2017-12-16T09:31:43.764Z,9.60
2017-12-16T09:32:43.755Z,10.00
2017-12-16T09:33:43.747Z,9.20
2017-12-16T09:34:43.739Z,11.80
2017-12-16T09:35:43.731Z,6.70
2017-12-16T09:36:43.724Z,10.60
2017-12-16T09:37:43.715Z,9.90
2017-12-16T09:38:43.706Z,15.30
2017-12-16T09:39:43.698Z,6.70
2017-12-16T09:40:43.692Z,12.70
2017-12-16T09:41:43.684Z,8.40
2017-12-16T09:42:43.677Z,15.10
2017-12-16T09:43:43.669Z,12.90
2017-12-16T09:44:43.661Z,9.40
2017-12-16T09:45:43.655Z,9.30
2017-12-16T09:46:43.645Z,7.90
2017-12-16T09:47:43.639Z,7.10
2017-12-16T09:48:43.635Z,8.40
2017-12-16T09:49:43.623Z,11.50
2017-12-16T09:50:43.667Z,7.60
2017-12-16T09:51:43.608Z,4.50
2017-12-16T09:52:43.602Z,12.30
2017-12-16T09:53:43.593Z,9.20
2017-12-16T09:54:43.586Z,10.00
2017-12-16T09:55:43.577Z,6.50
2017-12-16T09:56:43.571Z,10.20
2017-12-16T09:57:43.563Z,6.20
2017-12-16T09:58:43.555Z,9.10
2017-12-16T09:59:43.548Z,10.50
2017-12-16T10:00:43.542Z,12.70
2017-12-16T10:01:43.533Z,10.70
2017-12-16T10:02:43.526Z,9.40
2017-12-16T10:03:43.519Z,15.60
2017-12-16T10:04:43.512Z,6.60
2017-12-16T10:05:43.504Z,13.60
2017-12-16T10:06:43.497Z,7.60
2017-12-16T10:07:43.489Z,9.80
2017-12-16T10:08:43.482Z,13.10
2017-12-16T10:09:43.476Z,13.10
2017-12-16T10:10:43.467Z,13.20
2017-12-16T10:11:43.460Z,11.90
2017-12-16T10:12:43.452Z,6.70
2017-12-16T10:13:43.447Z,10.10
2017-12-16T10:14:43.445Z,12.80
2017-12-16T10:15:43.429Z,29.30
2017-12-16T10:16:43.422Z,28.80
2017-12-16T10:17:43.415Z,26.20
2017-12-16T10:18:43.408Z,9.30
2017-12-16T10:19:43.401Z,16.90
2017-12-16T10:20:43.393Z,12.10
2017-12-16T10:21:43.387Z,9.30
2017-12-16T10:22:43.379Z,5.70
2017-12-16T10:23:43.372Z,12.10
2017-12-16T10:24:43.364Z,14.30
2017-12-16T10:25:43.357Z,9.40
2017-12-16T10:26:43.350Z,6.30
2017-12-16T10:27:43.342Z,11.60
2017-12-16T10:28:43.337Z,6.30
2017-12-16T10:29:43.329Z,6.40
2017-12-16T10:30:43.322Z,9.80
2017-12-16T10:31:43.315Z,10.60
2017-12-16T10:32:43.309Z,20.70
2017-12-16T10:33:43.303Z,17.40
2017-12-16T10:34:43.294Z,6.40
2017-12-16T10:35:43.288Z,2.30
2017-12-16T10:36:43.282Z,3.10
2017-12-16T10:37:43.275Z,6.70
2017-12-16T10:38:43.268Z,5.10
2017-12-16T10:39:43.262Z,5.80
2017-12-16T10:40:43.254Z,5.20
2017-12-16T10:41:43.248Z,4.90
2017-12-16T10:42:43.242Z,5.20
2017-12-16T10:43:43.234Z,4.00
2017-12-16T10:44:43.232Z,6.90
2017-12-16T10:45:43.222Z,2.40
2017-12-16T10:46:43.214Z,3.50
2017-12-16T10:47:43.206Z,6.10
2017-12-16T10:48:43.201Z,5.40
2017-12-16T10:49:43.194Z,5.50
2017-12-16T10:50:43.187Z,5.60
2017-12-16T10:51:43.181Z,7.50
2017-12-16T10:52:43.174Z,5.80
2017-12-16T10:53:43.170Z,2.40
2017-12-16T10:54:43.161Z,2.80
2017-12-16T10:55:43.155Z,6.60
2017-12-16T10:56:43.149Z,2.00
2017-12-16T10:57:43.141Z,7.90
2017-12-16T10:58:43.135Z,9.00
2017-12-16T10:59:43.129Z,2.30
2017-12-16T11:00:43.123Z,6.00
2017-12-16T11:01:43.125Z,2.50
2017-12-16T11:02:43.110Z,4.20
2017-12-16T11:03:43.105Z,9.10
2017-12-16T11:04:43.099Z,2.70
2017-12-16T11:05:43.095Z,5.70
2017-12-16T11:06:43.088Z,3.70
2017-12-16T11:07:43.084Z,8.20
2017-12-16T11:08:43.078Z,4.70
2017-12-16T11:09:43.074Z,2.60
2017-12-16T11:10:43.068Z,4.20
2017-12-16T11:11:43.062Z,2.60
2017-12-16T11:12:43.057Z,2.10
2017-12-16T11:13:43.053Z,3.30
2017-12-16T11:14:43.047Z,3.60
2017-12-16T11:15:43.042Z,6.00
2017-12-16T11:16:43.037Z,3.30
2017-12-16T11:17:43.031Z,3.50
2017-12-16T11:18:43.025Z,4.40
2017-12-16T11:19:43.021Z,4.30
2017-12-16T11:20:43.016Z,5.20
2017-12-16T11:21:43.011Z,3.80
2017-12-16T11:22:43.006Z,5.40
2017-12-16T11:23:43.000Z,2.90
2017-12-16T11:24:42.994Z,6.00
2017-12-16T11:25:42.992Z,4.30
2017-12-16T11:26:42.983Z,3.80
2017-12-16T11:27:42.978Z,3.70
2017-12-16T11:28:42.976Z,4.30
2017-12-16T11:29:42.970Z,4.50
2017-12-16T11:30:42.963Z,3.80
2017-12-16T11:31:42.960Z,1.50
2017-12-16T11:32:42.954Z,1.80
2017-12-16T11:33:42.950Z,5.70
2017-12-16T11:34:42.944Z,8.20
2017-12-16T11:35:42.940Z,2.50
2017-12-16T11:36:42.934Z,1.80
2017-12-16T11:37:42.928Z,4.60
2017-12-16T11:38:42.924Z,2.80
2017-12-16T11:39:42.918Z,2.20
2017-12-16T11:40:42.914Z,5.10
2017-12-16T11:41:42.910Z,3.30
2017-12-16T11:42:42.904Z,8.20
2017-12-16T11:43:42.899Z,3.40
2017-12-16T11:44:42.895Z,4.10
2017-12-16T11:45:42.889Z,1.40
2017-12-16T11:46:42.882Z,3.80
2017-12-16T11:47:42.878Z,1.30
2017-12-16T11:48:42.880Z,3.30
2017-12-16T11:49:42.868Z,5.70
2017-12-16T11:50:42.862Z,3.70
2017-12-16T11:51:42.857Z,3.80
2017-12-16T11:52:42.854Z,2.80
2017-12-16T11:53:42.847Z,5.90
2017-12-16T11:54:42.838Z,6.30
2017-12-16T11:55:42.834Z,4.50
2017-12-16T11:56:42.830Z,4.20
2017-12-16T11:57:42.824Z,4.40
2017-12-16T11:58:42.817Z,5.40
2017-12-16T11:59:42.812Z,5.40
2017-12-16T12:00:42.807Z,10.20
2017-12-16T12:01:42.800Z,3.70
2017-12-16T12:02:42.793Z,1.80
2017-12-16T12:03:42.789Z,6.40
2017-12-16T12:04:42.784Z,6.30
2017-12-16T12:05:42.784Z,1.70
2017-12-16T12:06:42.772Z,7.30
2017-12-16T12:07:42.766Z,4.70
2017-12-16T12:08:42.761Z,9.90
2017-12-16T12:09:42.755Z,1.40
2017-12-16T12:10:42.749Z,4.30
2017-12-16T12:11:42.745Z,1.80
2017-12-16T12:12:42.737Z,4.90
2017-12-16T12:13:42.732Z,7.70
2017-12-16T12:14:42.725Z,4.70
2017-12-16T12:15:42.719Z,6.60
2017-12-16T12:16:42.717Z,2.00
2017-12-16T12:17:42.709Z,2.40
2017-12-16T12:18:42.703Z,4.10
2017-12-16T12:19:42.695Z,4.80
2017-12-16T12:20:42.689Z,3.60
2017-12-16T12:21:42.687Z,3.20
2017-12-16T12:22:42.677Z,2.50
2017-12-16T12:23:42.672Z,7.90
2017-12-16T12:24:42.666Z,3.50
2017-12-16T12:25:42.661Z,1.70
2017-12-16T12:26:42.653Z,3.70
2017-12-16T12:27:42.648Z,6.40
2017-12-16T12:28:42.643Z,2.40
2017-12-16T12:29:42.637Z,2.20
2017-12-16T12:30:42.630Z,2.20
2017-12-16T12:31:42.624Z,3.80
2017-12-16T12:32:42.617Z,11.70
2017-12-16T12:33:42.613Z,3.70
2017-12-16T12:34:42.606Z,2.70
2017-12-16T12:35:42.599Z,4.10
2017-12-16T12:36:42.593Z,4.20
2017-12-16T12:37:42.588Z,3.70
2017-12-16T12:38:42.581Z,2.40
2017-12-16T12:39:42.575Z,1.10
2017-12-16T12:40:42.571Z,4.80
2017-12-16T12:41:42.563Z,2.50
2017-12-16T12:42:42.557Z,2.60
2017-12-16T12:43:42.550Z,14.70
2017-12-16T12:44:42.544Z,2.80
2017-12-16T12:45:42.539Z,5.10
2017-12-16T12:46:42.532Z,3.40
2017-12-16T12:47:42.525Z,4.10
2017-12-16T12:48:42.520Z,2.50
2017-12-16T12:49:42.513Z,2.80
2017-12-16T12:50:42.506Z,3.50
2017-12-16T12:51:42.504Z,1.40
2017-12-16T12:52:42.493Z,4.40
2017-12-16T12:53:42.491Z,3.60
2017-12-16T12:54:42.480Z,3.70
2017-12-16T12:55:42.475Z,1.20
2017-12-16T12:56:42.474Z,1.20
2017-12-16T12:57:42.468Z,1.30
2017-12-16T12:58:42.456Z,4.40